Page Field
KFMY : now visible

Airfield :











YOU CAN JOIN US ON...

 
LOGIN :

Register | Disclaimer

   EN    FR    IT 

 









Legend :    VFR   Marginal VFR   IFR   Intensive IFR   Very Intensive IFR
Visi :
Ceiling :
>= 8 km
>= 3000ft
5 to 8 km
1000 to 3000 ft
1500m to 5 km
500 to 1000 ft
800 to 1500m
200 to 500 ft
< 800m
< 200 ft
Symbols :   Thunderstorms  Fog  Heavy snow  Heavy precipitations  Wind > 20 kt






- Airport Elevation : 17 ft


KFMY - Page Field

CURRENT METAR :
  • 101153Z AUTO 28008KT 8SM FEW014 26/23 A2985 RMK AO2 SLP111 T02560228 10256 20244 53015

EXPIRED METARs :
  • 101140Z AUTO 26008KT 7SM FEW014 SCT022 25/23 A2985 RMK AO2 T02500228
  • 101113Z AUTO 27007KT 9SM BKN015 BKN021 25/23 A2985 RMK AO2 T02500228
  • 101053Z AUTO 29008KT 9SM SCT015 25/23 A2985 RMK AO2 SLP109 T02500228
  • 100953Z AUTO 25009KT 9SM CLR 25/23 A2981 RMK AO2 SLP097 T02500228

TAF KFMY
Valid from the 10 at 12:00 until the 11 at 12:00 UTC


101120Z 1012/1112 26009KT P6SM SCT010 BKN020 OVC080
FM101500 29010G15KT P6SM BKN015 OVC060
FM101800 29015G20KT P6SM VCSH BKN030 OVC050
FM102100 29017G23KT P6SM VCSH SCT020 BKN050
FM110100 01007KT P6SM SCT020 BKN050
FM110600 05006KT P6SM BKN250



MET'MAP, your aeronautical weather chart ! - Copyright ORBIFLY December 2007 - Disclaimer

ORBIFLY MET'MAP TEAM :

Programming & Development : Alexandra Zaïnal
Concept & original design : Baudouin d'Aumeries
Assistance for programming : Marc-Olivier Méhu
Technical & hardware support : Manuel Goepfert

Contact : metmap@orbifly.com




SOURCES & CREDITS :

   NOAA       Earth
Advisory